sensor_id;sensor_type;location;lat;lon;timestamp;pressure;altitude;pressure_sealevel;temperature;humidity
60832;BME280;46665;51.558;-0.448;2022-11-20T00:01:40;100651.47;;;3.94;100.00
60832;BME280;46665;51.558;-0.448;2022-11-20T00:04:24;100654.50;;;3.97;100.00
60832;BME280;46665;51.558;-0.448;2022-11-20T00:07:08;100641.41;;;4.01;100.00
60832;BME280;46665;51.558;-0.448;2022-11-20T00:09:53;100637.16;;;4.05;100.00
60832;BME280;46665;51.558;-0.448;2022-11-20T00:12:37;100627.31;;;4.10;100.00
60832;BME280;46665;51.558;-0.448;2022-11-20T00:15:21;100623.09;;;4.15;100.00
60832;BME280;46665;51.558;-0.448;2022-11-20T00:18:05;100619.09;;;4.17;100.00
60832;BME280;46665;51.558;-0.448;2022-11-20T00:20:49;100625.88;;;4.20;100.00
60832;BME280;46665;51.558;-0.448;2022-11-20T00:23:33;100626.47;;;4.22;100.00
60832;BME280;46665;51.558;-0.448;2022-11-20T00:26:19;100618.59;;;4.20;100.00
60832;BME280;46665;51.558;-0.448;2022-11-20T00:29:03;100625.88;;;4.20;100.00
60832;BME280;46665;51.558;-0.448;2022-11-20T00:31:47;100620.50;;;4.20;100.00
60832;BME280;46665;51.558;-0.448;2022-11-20T00:34:31;100608.78;;;4.26;100.00
60832;BME280;46665;51.558;-0.448;2022-11-20T00:37:15;100602.44;;;4.20;100.00
60832;BME280;46665;51.558;-0.448;2022-11-20T00:39:59;100602.00;;;4.23;100.00
60832;BME280;46665;51.558;-0.448;2022-11-20T00:42:43;100592.94;;;4.29;100.00
60832;BME280;46665;51.558;-0.448;2022-11-20T00:45:27;100595.16;;;4.32;100.00
60832;BME280;46665;51.558;-0.448;2022-11-20T00:48:11;100592.81;;;4.36;100.00
60832;BME280;46665;51.558;-0.448;2022-11-20T00:50:55;100583.91;;;4.36;100.00
60832;BME280;46665;51.558;-0.448;2022-11-20T00:53:39;100579.66;;;4.40;100.00
60832;BME280;46665;51.558;-0.448;2022-11-20T00:56:23;100574.63;;;4.43;100.00
60832;BME280;46665;51.558;-0.448;2022-11-20T00:59:08;100580.56;;;4.45;100.00
60832;BME280;46665;51.558;-0.448;2022-11-20T01:01:53;100573.88;;;4.48;100.00
60832;BME280;46665;51.558;-0.448;2022-11-20T01:04:37;100582.88;;;4.53;100.00
60832;BME280;46665;51.558;-0.448;2022-11-20T01:07:21;100572.41;;;4.57;100.00
60832;BME280;46665;51.558;-0.448;2022-11-20T01:10:05;100562.72;;;4.56;100.00
60832;BME280;46665;51.558;-0.448;2022-11-20T01:12:49;100559.53;;;4.59;100.00
60832;BME280;46665;51.558;-0.448;2022-11-20T01:15:53;100561.97;;;4.61;100.00
60832;BME280;46665;51.558;-0.448;2022-11-20T01:18:39;100561.16;;;4.60;100.00
60832;BME280;46665;51.558;-0.448;2022-11-20T01:21:27;100559.63;;;4.64;100.00
60832;BME280;46665;51.558;-0.448;2022-11-20T01:24:14;100556.44;;;4.67;100.00
60832;BME280;46665;51.558;-0.448;2022-11-20T01:26:58;100542.94;;;4.67;100.00
60832;BME280;46665;51.558;-0.448;2022-11-20T01:29:42;100543.59;;;4.74;100.00
60832;BME280;46665;51.558;-0.448;2022-11-20T01:32:26;100540.66;;;4.76;100.00
60832;BME280;46665;51.558;-0.448;2022-11-20T01:35:10;100539.09;;;4.80;100.00
60832;BME280;46665;51.558;-0.448;2022-11-20T01:37:54;100544.00;;;4.83;100.00
60832;BME280;46665;51.558;-0.448;2022-11-20T01:40:38;100531.09;;;4.85;100.00
60832;BME280;46665;51.558;-0.448;2022-11-20T01:43:22;100534.94;;;4.89;100.00
60832;BME280;46665;51.558;-0.448;2022-11-20T01:46:18;100525.78;;;4.90;100.00
60832;BME280;46665;51.558;-0.448;2022-11-20T01:49:08;100516.97;;;4.95;100.00
60832;BME280;46665;51.558;-0.448;2022-11-20T01:51:57;100504.28;;;4.95;100.00
60832;BME280;46665;51.558;-0.448;2022-11-20T01:55:04;100499.97;;;4.94;100.00
60832;BME280;46665;51.558;-0.448;2022-11-20T01:57:50;100501.59;;;4.95;100.00
60832;BME280;46665;51.558;-0.448;2022-11-20T02:00:35;100490.81;;;4.95;100.00
60832;BME280;46665;51.558;-0.448;2022-11-20T02:03:20;100491.63;;;4.96;100.00
60832;BME280;46665;51.558;-0.448;2022-11-20T02:06:27;100491.97;;;4.99;100.00
60832;BME280;46665;51.558;-0.448;2022-11-20T02:09:14;100486.56;;;4.99;100.00
60832;BME280;46665;51.558;-0.448;2022-11-20T02:11:58;100482.56;;;5.02;100.00
60832;BME280;46665;51.558;-0.448;2022-11-20T02:14:42;100476.66;;;5.05;100.00
60832;BME280;46665;51.558;-0.448;2022-11-20T02:17:27;100468.34;;;5.07;100.00
60832;BME280;46665;51.558;-0.448;2022-11-20T02:20:11;100458.66;;;5.11;100.00
60832;BME280;46665;51.558;-0.448;2022-11-20T02:23:00;100448.13;;;5.09;100.00
60832;BME280;46665;51.558;-0.448;2022-11-20T02:25:47;100459.16;;;5.08;100.00
60832;BME280;46665;51.558;-0.448;2022-11-20T02:28:33;100456.72;;;5.06;100.00
60832;BME280;46665;51.558;-0.448;2022-11-20T02:31:17;100444.06;;;5.07;100.00
60832;BME280;46665;51.558;-0.448;2022-11-20T02:34:01;100445.03;;;5.00;100.00
60832;BME280;46665;51.558;-0.448;2022-11-20T02:36:46;100441.53;;;5.00;100.00
60832;BME280;46665;51.558;-0.448;2022-11-20T02:39:30;100436.94;;;5.00;100.00
60832;BME280;46665;51.558;-0.448;2022-11-20T02:42:15;100436.13;;;5.00;100.00
60832;BME280;46665;51.558;-0.448;2022-11-20T02:44:59;100429.44;;;5.03;100.00
60832;BME280;46665;51.558;-0.448;2022-11-20T02:47:43;100420.53;;;5.02;100.00
60832;BME280;46665;51.558;-0.448;2022-11-20T02:50:27;100423.28;;;5.07;100.00
60832;BME280;46665;51.558;-0.448;2022-11-20T02:53:11;100420.09;;;5.10;100.00
60832;BME280;46665;51.558;-0.448;2022-11-20T02:55:55;100417.97;;;5.12;100.00
60832;BME280;46665;51.558;-0.448;2022-11-20T02:58:39;100412.50;;;5.07;100.00
60832;BME280;46665;51.558;-0.448;2022-11-20T03:01:23;100416.81;;;5.08;100.00
60832;BME280;46665;51.558;-0.448;2022-11-20T03:04:07;100413.88;;;5.10;100.00
60832;BME280;46665;51.558;-0.448;2022-11-20T03:06:51;100410.13;;;5.11;100.00
60832;BME280;46665;51.558;-0.448;2022-11-20T03:09:35;100414.19;;;5.13;100.00
60832;BME280;46665;51.558;-0.448;2022-11-20T03:12:19;100414.47;;;5.12;100.00
60832;BME280;46665;51.558;-0.448;2022-11-20T03:18:37;100409.25;;;5.05;100.00
60832;BME280;46665;51.558;-0.448;2022-11-20T03:21:21;100400.06;;;5.06;100.00
60832;BME280;46665;51.558;-0.448;2022-11-20T03:24:05;100395.75;;;5.05;100.00
60832;BME280;46665;51.558;-0.448;2022-11-20T03:26:50;100388.47;;;5.06;100.00
60832;BME280;46665;51.558;-0.448;2022-11-20T03:29:35;100395.00;;;5.10;100.00
60832;BME280;46665;51.558;-0.448;2022-11-20T03:32:19;100378.00;;;5.09;100.00
60832;BME280;46665;51.558;-0.448;2022-11-20T03:35:03;100376.69;;;5.12;100.00
60832;BME280;46665;51.558;-0.448;2022-11-20T03:37:47;100379.69;;;5.15;100.00
60832;BME280;46665;51.558;-0.448;2022-11-20T03:40:33;100367.34;;;5.19;100.00
60832;BME280;46665;51.558;-0.448;2022-11-20T03:43:17;100350.41;;;5.24;100.00
60832;BME280;46665;51.558;-0.448;2022-11-20T03:46:01;100350.94;;;5.26;100.00
60832;BME280;46665;51.558;-0.448;2022-11-20T03:48:46;100349.91;;;5.27;100.00
60832;BME280;46665;51.558;-0.448;2022-11-20T03:51:35;100348.00;;;5.28;100.00
60832;BME280;46665;51.558;-0.448;2022-11-20T03:54:19;100349.16;;;5.32;100.00
60832;BME280;46665;51.558;-0.448;2022-11-20T03:57:03;100338.34;;;5.32;100.00
60832;BME280;46665;51.558;-0.448;2022-11-20T03:59:47;100329.19;;;5.33;100.00
60832;BME280;46665;51.558;-0.448;2022-11-20T04:02:31;100325.97;;;5.36;100.00
60832;BME280;46665;51.558;-0.448;2022-11-20T04:05:15;100317.63;;;5.37;100.00
60832;BME280;46665;51.558;-0.448;2022-11-20T04:07:59;100321.94;;;5.38;100.00
60832;BME280;46665;51.558;-0.448;2022-11-20T04:10:42;100303.56;;;5.35;100.00
60832;BME280;46665;51.558;-0.448;2022-11-20T04:13:26;100300.34;;;5.38;100.00
60832;BME280;46665;51.558;-0.448;2022-11-20T04:16:10;100298.47;;;5.39;100.00
60832;BME280;46665;51.558;-0.448;2022-11-20T04:18:56;100300.31;;;5.33;100.00
60832;BME280;46665;51.558;-0.448;2022-11-20T04:21:41;100300.31;;;5.33;100.00
60832;BME280;46665;51.558;-0.448;2022-11-20T04:24:26;100300.06;;;5.35;100.00
60832;BME280;46665;51.558;-0.448;2022-11-20T04:27:10;100298.97;;;5.36;100.00
60832;BME280;46665;51.558;-0.448;2022-11-20T04:29:54;100287.38;;;5.35;100.00
60832;BME280;46665;51.558;-0.448;2022-11-20T04:32:38;100287.13;;;5.37;100.00
60832;BME280;46665;51.558;-0.448;2022-11-20T04:35:22;100293.06;;;5.39;100.00
60832;BME280;46665;51.558;-0.448;2022-11-20T04:38:06;100282.84;;;5.41;100.00
60832;BME280;46665;51.558;-0.448;2022-11-20T04:40:50;100284.22;;;5.43;100.00
60832;BME280;46665;51.558;-0.448;2022-11-20T04:43:34;100271.00;;;5.42;100.00
60832;BME280;46665;51.558;-0.448;2022-11-20T04:46:19;100267.78;;;5.45;100.00
60832;BME280;46665;51.558;-0.448;2022-11-20T04:49:04;100269.16;;;5.48;100.00
60832;BME280;46665;51.558;-0.448;2022-11-20T04:51:48;100262.38;;;5.45;100.00
60832;BME280;46665;51.558;-0.448;2022-11-20T04:54:32;100252.97;;;5.48;100.00
60832;BME280;46665;51.558;-0.448;2022-11-20T04:57:16;100251.06;;;5.48;100.00
60832;BME280;46665;51.558;-0.448;2022-11-20T05:00:00;100240.03;;;5.50;100.00
60832;BME280;46665;51.558;-0.448;2022-11-20T05:02:44;100235.66;;;5.43;100.00
60832;BME280;46665;51.558;-0.448;2022-11-20T05:05:28;100235.13;;;5.47;100.00
60832;BME280;46665;51.558;-0.448;2022-11-20T05:08:12;100221.63;;;5.47;100.00
60832;BME280;46665;51.558;-0.448;2022-11-20T05:11:01;100221.94;;;5.50;100.00
60832;BME280;46665;51.558;-0.448;2022-11-20T05:13:45;100213.56;;;5.52;100.00
60832;BME280;46665;51.558;-0.448;2022-11-20T05:16:30;100217.41;;;5.56;100.00
60832;BME280;46665;51.558;-0.448;2022-11-20T05:19:14;100222.03;;;5.60;100.00
60832;BME280;46665;51.558;-0.448;2022-11-20T05:21:58;100216.91;;;5.64;100.00
60832;BME280;46665;51.558;-0.448;2022-11-20T05:24:42;100208.28;;;5.67;100.00
60832;BME280;46665;51.558;-0.448;2022-11-20T05:27:26;100200.75;;;5.69;100.00
60832;BME280;46665;51.558;-0.448;2022-11-20T05:30:10;100194.03;;;5.72;100.00
60832;BME280;46665;51.558;-0.448;2022-11-20T05:32:54;100191.06;;;5.73;100.00
60832;BME280;46665;51.558;-0.448;2022-11-20T05:35:38;100190.28;;;5.78;100.00
60832;BME280;46665;51.558;-0.448;2022-11-20T05:38:22;100193.56;;;5.80;100.00
60832;BME280;46665;51.558;-0.448;2022-11-20T05:41:14;100190.31;;;5.83;100.00
60832;BME280;46665;51.558;-0.448;2022-11-20T05:43:59;100179.00;;;5.86;100.00
60832;BME280;46665;51.558;-0.448;2022-11-20T05:46:43;100169.00;;;5.86;100.00
60832;BME280;46665;51.558;-0.448;2022-11-20T05:49:27;100163.91;;;5.90;100.00
60832;BME280;46665;51.558;-0.448;2022-11-20T05:52:11;100158.22;;;5.92;100.00
60832;BME280;46665;51.558;-0.448;2022-11-20T05:54:55;100166.41;;;5.97;100.00
60832;BME280;46665;51.558;-0.448;2022-11-20T05:57:39;100159.94;;;5.98;100.00
60832;BME280;46665;51.558;-0.448;2022-11-20T06:00:23;100159.97;;;6.03;100.00
60832;BME280;46665;51.558;-0.448;2022-11-20T06:03:07;100162.38;;;6.04;100.00
60832;BME280;46665;51.558;-0.448;2022-11-20T06:05:51;100164.28;;;6.09;100.00
60832;BME280;46665;51.558;-0.448;2022-11-20T06:08:35;100155.94;;;6.11;100.00
60832;BME280;46665;51.558;-0.448;2022-11-20T06:11:19;100159.16;;;6.07;100.00
60832;BME280;46665;51.558;-0.448;2022-11-20T06:14:03;100159.97;;;6.08;100.00
60832;BME280;46665;51.558;-0.448;2022-11-20T06:16:47;100151.03;;;6.07;100.00
60832;BME280;46665;51.558;-0.448;2022-11-20T06:19:31;100132.13;;;6.07;100.00
60832;BME280;46665;51.558;-0.448;2022-11-20T06:22:15;100129.72;;;6.06;100.00
60832;BME280;46665;51.558;-0.448;2022-11-20T06:24:59;100133.78;;;6.08;100.00
60832;BME280;46665;51.558;-0.448;2022-11-20T06:27:42;100139.75;;;6.11;100.00
60832;BME280;46665;51.558;-0.448;2022-11-20T06:30:26;100138.41;;;6.13;100.00
60832;BME280;46665;51.558;-0.448;2022-11-20T06:33:10;100137.06;;;6.16;100.00
60832;BME280;46665;51.558;-0.448;2022-11-20T06:35:59;100132.72;;;6.15;100.00
60832;BME280;46665;51.558;-0.448;2022-11-20T06:38:44;100135.72;;;6.18;100.00
60832;BME280;46665;51.558;-0.448;2022-11-20T06:41:28;100127.59;;;6.18;100.00
60832;BME280;46665;51.558;-0.448;2022-11-20T06:44:12;100130.88;;;6.20;100.00
60832;BME280;46665;51.558;-0.448;2022-11-20T06:46:56;100138.44;;;6.23;100.00
60832;BME280;46665;51.558;-0.448;2022-11-20T06:49:40;100136.28;;;6.20;100.00
60832;BME280;46665;51.558;-0.448;2022-11-20T06:52:24;100142.75;;;6.24;100.00
60832;BME280;46665;51.558;-0.448;2022-11-20T06:55:08;100160.59;;;6.20;100.00
60832;BME280;46665;51.558;-0.448;2022-11-20T06:57:52;100138.13;;;6.20;100.00
60832;BME280;46665;51.558;-0.448;2022-11-20T07:00:35;100130.03;;;6.20;100.00
60832;BME280;46665;51.558;-0.448;2022-11-20T07:03:19;100134.38;;;6.26;100.00
60832;BME280;46665;51.558;-0.448;2022-11-20T07:06:04;100141.16;;;6.28;100.00
60832;BME280;46665;51.558;-0.448;2022-11-20T07:08:51;100132.75;;;6.25;100.00
60832;BME280;46665;51.558;-0.448;2022-11-20T07:11:36;100134.66;;;6.29;100.00
60832;BME280;46665;51.558;-0.448;2022-11-20T07:14:20;100131.16;;;6.29;100.00
60832;BME280;46665;51.558;-0.448;2022-11-20T07:17:04;100126.00;;;6.27;100.00
60832;BME280;46665;51.558;-0.448;2022-11-20T07:19:48;100127.34;;;6.30;100.00
60832;BME280;46665;51.558;-0.448;2022-11-20T07:22:32;100126.00;;;6.27;100.00
60832;BME280;46665;51.558;-0.448;2022-11-20T07:25:16;100130.59;;;6.27;100.00
60832;BME280;46665;51.558;-0.448;2022-11-20T07:28:00;100119.78;;;6.27;100.00
60832;BME280;46665;51.558;-0.448;2022-11-20T07:30:52;100116.25;;;6.21;100.00
60832;BME280;46665;51.558;-0.448;2022-11-20T07:33:36;100115.72;;;6.19;100.00
60832;BME280;46665;51.558;-0.448;2022-11-20T07:36:21;100114.59;;;6.15;100.00
60832;BME280;46665;51.558;-0.448;2022-11-20T07:39:05;100124.06;;;6.13;100.00
60832;BME280;46665;51.558;-0.448;2022-11-20T07:41:49;100114.03;;;6.03;100.00
60832;BME280;46665;51.558;-0.448;2022-11-20T07:44:32;100123.72;;;5.99;100.00
60832;BME280;46665;51.558;-0.448;2022-11-20T07:47:16;100117.72;;;5.92;100.00
60832;BME280;46665;51.558;-0.448;2022-11-20T07:50:00;100125.56;;;5.88;100.00
60832;BME280;46665;51.558;-0.448;2022-11-20T07:52:44;100137.69;;;5.85;100.00
60832;BME280;46665;51.558;-0.448;2022-11-20T07:55:28;100136.03;;;5.84;100.00
60832;BME280;46665;51.558;-0.448;2022-11-20T07:58:12;100141.97;;;5.81;100.00
60832;BME280;46665;51.558;-0.448;2022-11-20T08:00:57;100147.91;;;5.78;100.00
60832;BME280;46665;51.558;-0.448;2022-11-20T08:03:41;100145.44;;;5.77;100.00
60832;BME280;46665;51.558;-0.448;2022-11-20T08:06:25;100150.81;;;5.72;100.00
60832;BME280;46665;51.558;-0.448;2022-11-20T08:09:09;100158.69;;;5.73;100.00
60832;BME280;46665;51.558;-0.448;2022-11-20T08:11:55;100158.09;;;5.66;100.00
60832;BME280;46665;51.558;-0.448;2022-11-20T08:14:57;100162.34;;;5.57;100.00
60832;BME280;46665;51.558;-0.448;2022-11-20T08:17:42;100160.97;;;5.54;100.00
60832;BME280;46665;51.558;-0.448;2022-11-20T08:20:26;100164.47;;;5.50;100.00
60832;BME280;46665;51.558;-0.448;2022-11-20T08:23:11;100164.47;;;5.50;100.00
60832;BME280;46665;51.558;-0.448;2022-11-20T08:25:55;100169.59;;;5.51;100.00
60832;BME280;46665;51.558;-0.448;2022-11-20T08:28:39;100170.91;;;5.49;100.00
60832;BME280;46665;51.558;-0.448;2022-11-20T08:31:24;100183.88;;;5.52;100.00
60832;BME280;46665;51.558;-0.448;2022-11-20T08:34:09;100166.84;;;5.46;100.00
60832;BME280;46665;51.558;-0.448;2022-11-20T08:36:53;100176.31;;;5.49;100.00
60832;BME280;46665;51.558;-0.448;2022-11-20T08:39:37;100170.66;;;5.50;100.00
60832;BME280;46665;51.558;-0.448;2022-11-20T08:42:21;100177.16;;;5.54;100.00
60832;BME280;46665;51.558;-0.448;2022-11-20T08:45:05;100173.41;;;5.55;100.00
60832;BME280;46665;51.558;-0.448;2022-11-20T08:47:50;100169.06;;;5.54;100.00
60832;BME280;46665;51.558;-0.448;2022-11-20T08:50:33;100176.69;;;5.62;100.00
60832;BME280;46665;51.558;-0.448;2022-11-20T08:53:17;100177.53;;;5.68;100.00
60832;BME280;46665;51.558;-0.448;2022-11-20T08:56:01;100175.69;;;5.74;100.00
60832;BME280;46665;51.558;-0.448;2022-11-20T08:58:45;100191.66;;;5.80;100.00
60832;BME280;46665;51.558;-0.448;2022-11-20T09:01:29;100191.69;;;5.85;100.00
60832;BME280;46665;51.558;-0.448;2022-11-20T09:04:13;100184.19;;;5.93;100.00
60832;BME280;46665;51.558;-0.448;2022-11-20T09:06:59;100187.19;;;5.96;100.00
60832;BME280;46665;51.558;-0.448;2022-11-20T09:09:43;100179.91;;;6.02;100.00
60832;BME280;46665;51.558;-0.448;2022-11-20T09:12:27;100174.81;;;6.05;100.00
60832;BME280;46665;51.558;-0.448;2022-11-20T09:15:11;100176.19;;;6.08;100.00
60832;BME280;46665;51.558;-0.448;2022-11-20T09:17:58;100201.88;;;6.11;100.00
60832;BME280;46665;51.558;-0.448;2022-11-20T09:20:42;100205.06;;;6.07;100.00
60832;BME280;46665;51.558;-0.448;2022-11-20T09:23:27;100215.63;;;6.09;100.00
60832;BME280;46665;51.558;-0.448;2022-11-20T09:26:14;100207.25;;;6.05;100.00
60832;BME280;46665;51.558;-0.448;2022-11-20T09:28:58;100203.19;;;6.08;100.00
60832;BME280;46665;51.558;-0.448;2022-11-20T09:31:42;100210.25;;;6.14;100.00
60832;BME280;46665;51.558;-0.448;2022-11-20T09:34:26;100210.28;;;6.19;100.00
60832;BME280;46665;51.558;-0.448;2022-11-20T09:37:10;100213.53;;;6.21;100.00
60832;BME280;46665;51.558;-0.448;2022-11-20T09:39:54;100219.75;;;6.27;100.00
60832;BME280;46665;51.558;-0.448;2022-11-20T09:49:06;100201.69;;;6.38;100.00
60832;BME280;46665;51.558;-0.448;2022-11-20T09:51:59;100195.50;;;6.42;100.00
60832;BME280;46665;51.558;-0.448;2022-11-20T09:54:43;100187.69;;;6.46;100.00
60832;BME280;46665;51.558;-0.448;2022-11-20T09:57:36;100191.78;;;6.48;100.00
60832;BME280;46665;51.558;-0.448;2022-11-20T10:00:21;100184.19;;;6.50;100.00
60832;BME280;46665;51.558;-0.448;2022-11-20T10:03:14;100187.44;;;6.58;100.00
60832;BME280;46665;51.558;-0.448;2022-11-20T10:06:01;100186.66;;;6.62;100.00
60832;BME280;46665;51.558;-0.448;2022-11-20T10:08:58;100194.78;;;6.67;100.00
60832;BME280;46665;51.558;-0.448;2022-11-20T10:15:07;100188.59;;;6.77;100.00
60832;BME280;46665;51.558;-0.448;2022-11-20T10:27:33;100180.25;;;6.94;100.00
60832;BME280;46665;51.558;-0.448;2022-11-20T10:30:21;100194.84;;;6.98;100.00
60832;BME280;46665;51.558;-0.448;2022-11-20T10:33:17;100186.75;;;7.03;100.00
60832;BME280;46665;51.558;-0.448;2022-11-20T10:36:38;100185.41;;;7.06;100.00
60832;BME280;46665;51.558;-0.448;2022-11-20T10:39:35;100190.00;;;7.10;100.00
60832;BME280;46665;51.558;-0.448;2022-11-20T10:45:39;100186.25;;;7.22;100.00
60832;BME280;46665;51.558;-0.448;2022-11-20T10:48:28;100190.81;;;7.26;100.00
60832;BME280;46665;51.558;-0.448;2022-11-20T10:51:31;100184.91;;;7.29;100.00
60832;BME280;46665;51.558;-0.448;2022-11-20T10:54:32;100189.22;;;7.30;100.00
60832;BME280;46665;51.558;-0.448;2022-11-20T11:00:21;100179.19;;;7.36;100.00
60832;BME280;46665;51.558;-0.448;2022-11-20T11:06:08;100172.16;;;7.40;100.00
60832;BME280;46665;51.558;-0.448;2022-11-20T11:08:56;100184.34;;;7.43;100.00
60832;BME280;46665;51.558;-0.448;2022-11-20T11:11:42;100187.31;;;7.51;100.00
60832;BME280;46665;51.558;-0.448;2022-11-20T11:14:26;100183.53;;;7.57;100.00
60832;BME280;46665;51.558;-0.448;2022-11-20T11:17:30;100184.03;;;7.59;100.00
60832;BME280;46665;51.558;-0.448;2022-11-20T11:20:17;100183.53;;;7.57;100.00
60832;BME280;46665;51.558;-0.448;2022-11-20T11:23:02;100187.59;;;7.65;100.00
60832;BME280;46665;51.558;-0.448;2022-11-20T11:25:56;100185.94;;;7.69;100.00
60832;BME280;46665;51.558;-0.448;2022-11-20T11:28:41;100187.28;;;7.72;100.00
60832;BME280;46665;51.558;-0.448;2022-11-20T11:31:34;100188.13;;;7.67;100.00
60832;BME280;46665;51.558;-0.448;2022-11-20T11:34:18;100197.06;;;7.68;100.00
60832;BME280;46665;51.558;-0.448;2022-11-20T11:37:02;100193.53;;;7.72;100.00
60832;BME280;46665;51.558;-0.448;2022-11-20T11:39:48;100194.34;;;7.73;100.00
60832;BME280;46665;51.558;-0.448;2022-11-20T11:42:33;100189.97;;;7.77;100.00
60832;BME280;46665;51.558;-0.448;2022-11-20T11:45:17;100192.44;;;7.84;100.00
60832;BME280;46665;51.558;-0.448;2022-11-20T11:48:03;100181.31;;;7.85;100.00
60832;BME280;46665;51.558;-0.448;2022-11-20T11:50:49;100187.00;;;7.78;100.00
60832;BME280;46665;51.558;-0.448;2022-11-20T11:53:35;100186.75;;;7.85;100.00
60832;BME280;46665;51.558;-0.448;2022-11-20T11:56:25;100188.91;;;7.88;100.00
60832;BME280;46665;51.558;-0.448;2022-11-20T11:59:26;100192.94;;;7.96;100.00
60832;BME280;46665;51.558;-0.448;2022-11-20T12:05:29;100185.59;;;8.01;100.00
60832;BME280;46665;51.558;-0.448;2022-11-20T12:08:22;100180.19;;;8.07;100.00
60832;BME280;46665;51.558;-0.448;2022-11-20T12:11:20;100189.13;;;8.07;100.00
60832;BME280;46665;51.558;-0.448;2022-11-20T12:14:15;100192.63;;;8.02;100.00
60832;BME280;46665;51.558;-0.448;2022-11-20T12:17:01;100193.47;;;8.03;100.00
60832;BME280;46665;51.558;-0.448;2022-11-20T12:19:45;100195.88;;;8.10;100.00
60832;BME280;46665;51.558;-0.448;2022-11-20T12:25:53;100199.41;;;8.05;100.00
60832;BME280;46665;51.558;-0.448;2022-11-20T12:28:52;100189.66;;;8.09;100.00
60832;BME280;46665;51.558;-0.448;2022-11-20T12:31:51;100200.50;;;8.09;100.00
60832;BME280;46665;51.558;-0.448;2022-11-20T12:37:50;100209.16;;;8.11;100.00
60832;BME280;46665;51.558;-0.448;2022-11-20T12:40:59;100198.56;;;8.15;100.00
60832;BME280;46665;51.558;-0.448;2022-11-20T12:44:19;100203.22;;;8.04;100.00
60832;BME280;46665;51.558;-0.448;2022-11-20T13:08:41;100208.06;;;8.17;100.00
60832;BME280;46665;51.558;-0.448;2022-11-20T13:11:41;100211.06;;;8.11;100.00
60832;BME280;46665;51.558;-0.448;2022-11-20T13:14:42;100218.63;;;8.14;100.00
60832;BME280;46665;51.558;-0.448;2022-11-20T13:17:36;100225.69;;;8.10;100.00
60832;BME280;46665;51.558;-0.448;2022-11-20T13:20:22;100217.59;;;7.94;100.00
60832;BME280;46665;51.558;-0.448;2022-11-20T13:23:06;100224.34;;;7.97;100.00
60832;BME280;46665;51.558;-0.448;2022-11-20T13:25:49;100229.78;;;7.97;100.00
60832;BME280;46665;51.558;-0.448;2022-11-20T13:28:34;100233.03;;;8.04;100.00
60832;BME280;46665;51.558;-0.448;2022-11-20T13:31:41;100235.72;;;8.09;100.00
60832;BME280;46665;51.558;-0.448;2022-11-20T13:34:27;100228.41;;;8.10;100.00
60832;BME280;46665;51.558;-0.448;2022-11-20T13:37:31;100233.53;;;8.21;100.00
60832;BME280;46665;51.558;-0.448;2022-11-20T13:40:21;100215.38;;;8.12;100.00
60832;BME280;46665;51.558;-0.448;2022-11-20T13:43:28;100230.59;;;8.13;100.00
60832;BME280;46665;51.558;-0.448;2022-11-20T13:46:17;100211.59;;;8.08;100.00
60832;BME280;46665;51.558;-0.448;2022-11-20T13:49:37;100209.97;;;8.07;100.00
60832;BME280;46665;51.558;-0.448;2022-11-20T13:53:02;100200.75;;;8.08;100.00
60832;BME280;46665;51.558;-0.448;2022-11-20T13:56:01;100178.59;;;8.00;100.00
60832;BME280;46665;51.558;-0.448;2022-11-20T13:59:04;100174.78;;;7.96;100.00
60832;BME280;46665;51.558;-0.448;2022-11-20T14:01:53;100180.75;;;7.93;100.00
60832;BME280;46665;51.558;-0.448;2022-11-20T14:04:42;100175.88;;;7.95;100.00
60832;BME280;46665;51.558;-0.448;2022-11-20T14:07:35;100168.81;;;7.94;100.00
60832;BME280;46665;51.558;-0.448;2022-11-20T14:10:24;100155.00;;;7.96;100.00
60832;BME280;46665;51.558;-0.448;2022-11-20T14:13:19;100161.25;;;7.96;100.00
60832;BME280;46665;51.558;-0.448;2022-11-20T14:16:03;100144.47;;;7.89;100.00
60832;BME280;46665;51.558;-0.448;2022-11-20T14:18:47;100154.50;;;7.89;100.00
60832;BME280;46665;51.558;-0.448;2022-11-20T14:21:31;100167.78;;;7.90;100.00
60832;BME280;46665;51.558;-0.448;2022-11-20T14:24:20;100176.16;;;7.89;100.00
60832;BME280;46665;51.558;-0.448;2022-11-20T14:27:04;100188.09;;;7.88;100.00
60832;BME280;46665;51.558;-0.448;2022-11-20T14:29:49;100184.53;;;7.87;100.00
60832;BME280;46665;51.558;-0.448;2022-11-20T14:32:34;100186.72;;;7.90;100.00
60832;BME280;46665;51.558;-0.448;2022-11-20T14:35:27;100195.38;;;7.92;100.00
60832;BME280;46665;51.558;-0.448;2022-11-20T14:38:16;100196.47;;;7.91;100.00
60832;BME280;46665;51.558;-0.448;2022-11-20T14:41:08;100206.75;;;7.99;100.00
60832;BME280;46665;51.558;-0.448;2022-11-20T14:43:56;100203.78;;;7.96;100.00
60832;BME280;46665;51.558;-0.448;2022-11-20T14:46:42;100202.69;;;7.92;100.00
60832;BME280;46665;51.558;-0.448;2022-11-20T14:49:26;100199.19;;;7.91;100.00
60832;BME280;46665;51.558;-0.448;2022-11-20T14:52:24;100202.44;;;7.88;100.00
60832;BME280;46665;51.558;-0.448;2022-11-20T14:55:13;100195.66;;;7.91;100.00
60832;BME280;46665;51.558;-0.448;2022-11-20T14:58:19;100194.56;;;7.92;100.00
60832;BME280;46665;51.558;-0.448;2022-11-20T15:01:06;100185.63;;;7.91;100.00
60832;BME280;46665;51.558;-0.448;2022-11-20T15:04:04;100184.81;;;7.91;100.00
60832;BME280;46665;51.558;-0.448;2022-11-20T15:06:54;100179.66;;;7.94;100.00
60832;BME280;46665;51.558;-0.448;2022-11-20T15:09:38;100176.16;;;7.94;100.00
60832;BME280;46665;51.558;-0.448;2022-11-20T15:12:22;100178.31;;;7.87;100.00
60832;BME280;46665;51.558;-0.448;2022-11-20T15:15:10;100173.47;;;7.84;100.00
60832;BME280;46665;51.558;-0.448;2022-11-20T15:17:56;100168.03;;;7.84;100.00
60832;BME280;46665;51.558;-0.448;2022-11-20T15:20:41;100164.53;;;7.78;100.00
60832;BME280;46665;51.558;-0.448;2022-11-20T15:23:26;100165.91;;;7.75;100.00
60832;BME280;46665;51.558;-0.448;2022-11-20T15:26:12;100164.53;;;7.78;100.00